Time;durP1;ratioP1;P1;durP2;ratioP2;P2;SDS_P1;SDS_P2;PMS_P1;PMS_P2;Temp;Humidity;BMP_temperature;BMP_pressure;BME280_temperature;BME280_humidity;BME280_pressure;Samples;Min_cycle;Max_cycle;Signal;HPM_P1;HPM_P2
2021/05/21 00:01:03;;;;;;;1.30;1.20;;;11.00;99.90;;;;;;5035684;28;20435;-79
2021/05/21 00:03:30;;;;;;;4.00;1.27;;;11.00;99.90;;;;;;5035485;28;20470;-79
2021/05/21 00:05:57;;;;;;;1.10;1.00;;;11.00;99.90;;;;;;5035591;28;20454;-79
2021/05/21 00:08:23;;;;;;;1.27;1.20;;;11.00;99.90;;;;;;5035544;28;20470;-79
2021/05/21 00:10:49;;;;;;;2.20;1.30;;;10.90;99.90;;;;;;5035403;28;20483;-79
2021/05/21 00:13:15;;;;;;;1.47;1.37;;;10.90;99.90;;;;;;5035452;28;20477;-79
2021/05/21 00:15:41;;;;;;;1.20;1.20;;;11.00;99.90;;;;;;5035090;28;20963;-79
2021/05/21 00:18:08;;;;;;;1.40;1.30;;;10.90;99.90;;;;;;5035323;28;20508;-79
2021/05/21 00:20:34;;;;;;;1.70;1.10;;;10.90;99.90;;;;;;5034956;28;21060;-79
2021/05/21 00:23:01;;;;;;;2.90;1.40;;;10.90;99.90;;;;;;5035292;28;20471;-79
2021/05/21 00:25:27;;;;;;;1.00;1.00;;;10.90;99.90;;;;;;5035189;28;20455;-80
2021/05/21 00:27:54;;;;;;;1.10;1.00;;;10.90;99.90;;;;;;5035397;28;20935;-80
2021/05/21 00:30:20;;;;;;;1.17;1.07;;;10.90;99.90;;;;;;5035022;28;20474;-80
2021/05/21 00:32:46;;;;;;;1.37;1.27;;;10.90;99.90;;;;;;5034776;28;20451;-79
2021/05/21 00:35:13;;;;;;;1.30;1.20;;;10.90;99.90;;;;;;5035045;28;20450;-79
2021/05/21 00:37:40;;;;;;;2.23;1.03;;;10.90;99.90;;;;;;5035019;28;20466;-79
2021/05/21 00:40:08;;;;;;;1.30;1.20;;;10.90;99.90;;;;;;5034853;28;20470;-79
2021/05/21 00:42:34;;;;;;;2.00;1.17;;;10.90;99.90;;;;;;5034690;28;20819;-79
2021/05/21 00:45:01;;;;;;;1.93;1.10;;;10.80;99.90;;;;;;5034922;28;20902;-80
2021/05/21 00:47:29;;;;;;;1.40;1.30;;;10.80;99.90;;;;;;5034732;28;20485;-79
2021/05/21 00:49:55;;;;;;;1.30;1.20;;;10.80;99.90;;;;;;5034826;28;20474;-79
2021/05/21 00:52:23;;;;;;;2.53;1.20;;;10.80;99.90;;;;;;5034690;28;20793;-79
2021/05/21 00:54:50;;;;;;;1.00;1.00;;;10.80;99.90;;;;;;5034622;28;20530;-79
2021/05/21 00:57:18;;;;;;;1.00;1.00;;;10.80;99.90;;;;;;5034344;28;20439;-79
2021/05/21 00:59:45;;;;;;;2.03;1.17;;;10.80;99.90;;;;;;5034743;28;20978;-79
2021/05/21 01:02:11;;;;;;;1.90;0.87;;;10.80;99.90;;;;;;5034591;28;20442;-79
2021/05/21 01:04:38;;;;;;;1.60;1.17;;;10.80;99.90;;;;;;5034414;28;20485;-79
2021/05/21 01:07:05;;;;;;;1.10;1.00;;;10.80;99.90;;;;;;5034406;28;20505;-79
2021/05/21 01:09:31;;;;;;;1.23;1.10;;;10.90;99.90;;;;;;5034319;28;20466;-79
2021/05/21 01:11:58;;;;;;;1.23;0.90;;;10.90;99.90;;;;;;5034024;28;20946;-79
2021/05/21 01:14:25;;;;;;;1.00;1.00;;;10.90;99.90;;;;;;5034442;28;20455;-79
2021/05/21 01:16:51;;;;;;;1.23;1.20;;;10.90;99.90;;;;;;5034212;28;20446;-79
2021/05/21 01:19:18;;;;;;;1.20;1.10;;;11.00;99.90;;;;;;5034177;28;20463;-79
2021/05/21 01:21:45;;;;;;;0.90;0.90;;;10.90;99.90;;;;;;5034160;28;20454;-79
2021/05/21 01:24:14;;;;;;;1.33;1.23;;;10.90;99.90;;;;;;5034103;28;20458;-79
2021/05/21 01:26:40;;;;;;;1.00;1.00;;;10.80;99.90;;;;;;5033652;28;20447;-79
2021/05/21 01:29:07;;;;;;;1.60;1.03;;;10.90;99.90;;;;;;5033635;28;20506;-79
2021/05/21 01:31:33;;;;;;;1.30;1.20;;;10.90;99.90;;;;;;5033964;28;20448;-79
2021/05/21 01:34:00;;;;;;;0.97;0.90;;;10.90;99.90;;;;;;5034367;28;20550;-79
2021/05/21 01:36:26;;;;;;;4.00;1.30;;;10.80;99.90;;;;;;5033902;28;20457;-79
2021/05/21 01:39:01;;;;;;;1.33;1.10;;;10.90;99.90;;;;;;5033481;28;20993;-80
2021/05/21 01:41:28;;;;;;;2.83;1.20;;;10.80;99.90;;;;;;5033836;28;20433;-80
2021/05/21 01:43:57;;;;;;;1.17;1.07;;;10.80;99.90;;;;;;5033451;28;20553;-79
2021/05/21 01:46:24;;;;;;;1.47;1.40;;;10.80;99.90;;;;;;5033781;28;20442;-79
2021/05/21 01:48:50;;;;;;;1.43;1.17;;;10.80;99.90;;;;;;5034429;28;20489;-80
2021/05/21 01:51:16;;;;;;;2.90;1.00;;;10.80;99.90;;;;;;5033664;28;20442;-80
2021/05/21 01:53:43;;;;;;;1.43;1.13;;;10.80;99.90;;;;;;5033616;28;20454;-79
2021/05/21 01:56:10;;;;;;;1.10;1.10;;;10.80;99.90;;;;;;5033562;28;20462;-79
2021/05/21 01:58:36;;;;;;;0.80;0.80;;;10.80;99.90;;;;;;5033518;28;20446;-79
2021/05/21 02:01:03;;;;;;;1.77;1.10;;;10.80;99.90;;;;;;5033504;28;20500;-79
2021/05/21 02:03:30;;;;;;;1.03;0.93;;;10.80;99.90;;;;;;5033152;28;20454;-80
2021/05/21 02:05:57;;;;;;;0.90;0.90;;;10.70;99.90;;;;;;5033436;28;20451;-79
2021/05/21 02:08:24;;;;;;;1.13;1.10;;;10.70;99.90;;;;;;5033368;28;20494;-79
2021/05/21 02:10:51;;;;;;;1.20;1.20;;;10.70;99.90;;;;;;5033110;28;20459;-79
2021/05/21 02:13:19;;;;;;;3.23;1.23;;;10.70;99.90;;;;;;5033435;28;20452;-80
2021/05/21 02:15:45;;;;;;;1.10;1.00;;;10.60;99.90;;;;;;5033411;28;20503;-80
2021/05/21 02:18:12;;;;;;;2.17;1.23;;;10.60;99.90;;;;;;5032497;28;20955;-80
2021/05/21 02:20:38;;;;;;;1.43;0.90;;;10.60;99.90;;;;;;5033208;28;20466;-80
2021/05/21 02:23:05;;;;;;;6.53;1.00;;;10.60;99.90;;;;;;5033329;28;20561;-80
2021/05/21 02:25:32;;;;;;;1.27;1.17;;;10.60;99.90;;;;;;5032958;28;21020;-79
2021/05/21 02:27:58;;;;;;;1.07;1.07;;;10.50;99.90;;;;;;5033159;28;20544;-79
2021/05/21 02:30:26;;;;;;;1.33;1.00;;;10.50;99.90;;;;;;5033171;28;20478;-79
2021/05/21 02:32:53;;;;;;;1.40;1.30;;;10.60;99.90;;;;;;5033173;28;20541;-79
2021/05/21 02:35:19;;;;;;;0.90;0.90;;;10.50;99.90;;;;;;5032823;28;20934;-79
2021/05/21 02:37:46;;;;;;;1.77;1.23;;;10.50;99.90;;;;;;5033167;28;20470;-79
2021/05/21 02:40:13;;;;;;;2.70;1.00;;;10.50;99.90;;;;;;5033090;28;20467;-79
2021/05/21 02:42:39;;;;;;;1.10;1.10;;;10.50;99.90;;;;;;5032861;28;20490;-79
2021/05/21 02:45:07;;;;;;;0.90;0.90;;;10.50;99.90;;;;;;5033182;28;20435;-79
2021/05/21 02:47:35;;;;;;;1.63;0.90;;;10.50;99.90;;;;;;5032860;28;20509;-79
2021/05/21 02:50:01;;;;;;;1.20;1.00;;;10.40;99.90;;;;;;5033039;28;20521;-79
2021/05/21 02:52:28;;;;;;;1.53;0.93;;;10.40;99.90;;;;;;5032699;28;20458;-79
2021/05/21 02:54:54;;;;;;;1.90;0.90;;;10.40;99.90;;;;;;5032933;28;20458;-80
2021/05/21 02:57:23;;;;;;;2.23;1.50;;;10.40;99.90;;;;;;5032976;28;20447;-80
2021/05/21 02:59:49;;;;;;;1.00;0.90;;;10.40;99.90;;;;;;5032919;28;20566;-79
2021/05/21 03:02:15;;;;;;;1.10;1.00;;;10.40;99.90;;;;;;5032961;28;20451;-79
2021/05/21 03:04:42;;;;;;;0.80;0.80;;;10.40;99.90;;;;;;5032928;28;20450;-79
2021/05/21 03:07:09;;;;;;;1.20;1.10;;;10.30;99.90;;;;;;5032867;28;20451;-79
2021/05/21 03:09:35;;;;;;;1.37;1.00;;;10.30;99.90;;;;;;5032852;28;20520;-79
2021/05/21 03:12:01;;;;;;;1.13;1.10;;;10.30;99.90;;;;;;5032875;28;20500;-79
2021/05/21 03:14:28;;;;;;;0.93;0.93;;;10.30;99.90;;;;;;5032866;28;20450;-79
2021/05/21 03:16:54;;;;;;;1.13;1.03;;;10.30;99.90;;;;;;5032604;28;20934;-79
2021/05/21 03:19:20;;;;;;;0.80;0.80;;;10.30;99.90;;;;;;5032424;28;20470;-79
2021/05/21 03:21:47;;;;;;;1.00;0.90;;;10.30;99.90;;;;;;5032769;28;20450;-79
2021/05/21 03:24:13;;;;;;;1.00;0.80;;;10.30;99.90;;;;;;5032727;28;20458;-79
2021/05/21 03:26:40;;;;;;;1.17;0.93;;;10.20;99.90;;;;;;5032488;28;20946;-79
2021/05/21 03:29:06;;;;;;;0.97;0.97;;;10.20;99.90;;;;;;5033740;28;20493;-79
2021/05/21 03:31:32;;;;;;;1.10;1.00;;;10.20;99.90;;;;;;5036216;28;20447;-79
2021/05/21 03:33:58;;;;;;;0.90;0.90;;;10.20;99.90;;;;;;5036197;28;20455;-79
2021/05/21 03:36:24;;;;;;;0.83;0.83;;;10.20;99.90;;;;;;5035890;28;20439;-79
2021/05/21 03:38:51;;;;;;;1.80;1.20;;;10.20;99.90;;;;;;5036009;28;20450;-80
2021/05/21 03:41:18;;;;;;;1.63;0.77;;;10.20;99.90;;;;;;5036071;28;20455;-80
2021/05/21 03:43:44;;;;;;;0.80;0.80;;;10.20;99.90;;;;;;5035750;28;20485;-79
2021/05/21 03:46:10;;;;;;;1.13;0.83;;;10.20;99.90;;;;;;5035685;28;21004;-79
2021/05/21 03:48:36;;;;;;;0.80;0.80;;;10.20;99.90;;;;;;5036234;28;20482;-79
2021/05/21 03:51:03;;;;;;;1.37;0.80;;;10.20;99.90;;;;;;5036018;28;20533;-80
2021/05/21 03:53:29;;;;;;;0.80;0.80;;;10.20;99.90;;;;;;5035902;28;20451;-79
2021/05/21 03:55:56;;;;;;;0.80;0.80;;;10.20;99.90;;;;;;5035551;28;20975;-79
2021/05/21 03:58:23;;;;;;;1.20;0.90;;;10.20;99.90;;;;;;5035439;28;20447;-80
2021/05/21 04:00:49;;;;;;;0.90;0.90;;;10.20;99.90;;;;;;5035340;28;20981;-80
2021/05/21 04:03:15;;;;;;;1.00;1.00;;;10.20;99.90;;;;;;5035483;28;20445;-80
2021/05/21 04:05:42;;;;;;;1.27;0.80;;;10.20;99.90;;;;;;5035623;28;20526;-80
2021/05/21 04:08:08;;;;;;;0.97;0.83;;;10.20;99.90;;;;;;5035239;28;20478;-80
2021/05/21 04:10:36;;;;;;;1.13;0.80;;;10.20;99.90;;;;;;5035914;28;20470;-80
2021/05/21 04:13:03;;;;;;;1.10;0.90;;;10.30;99.90;;;;;;5035222;28;20491;-80
2021/05/21 04:15:29;;;;;;;0.80;0.80;;;10.30;99.90;;;;;;5035395;28;20447;-80
2021/05/21 04:17:55;;;;;;;1.23;0.97;;;10.30;99.90;;;;;;5035380;28;20500;-80
2021/05/21 04:20:21;;;;;;;1.53;0.87;;;10.30;99.90;;;;;;5035227;28;20474;-80
2021/05/21 04:22:48;;;;;;;0.83;0.83;;;10.30;99.90;;;;;;5035273;28;20454;-80
2021/05/21 04:25:14;;;;;;;0.90;0.90;;;10.40;99.90;;;;;;5034929;28;21011;-80
2021/05/21 04:27:40;;;;;;;0.90;0.90;;;10.40;99.90;;;;;;5035115;28;20493;-80
2021/05/21 04:30:08;;;;;;;1.23;0.80;;;10.40;99.90;;;;;;5034871;28;20458;-80
2021/05/21 04:32:34;;;;;;;1.00;0.90;;;10.40;99.90;;;;;;5034752;28;21008;-80
2021/05/21 04:35:01;;;;;;;0.80;0.80;;;10.50;99.90;;;;;;5034742;28;20477;-80
2021/05/21 04:37:27;;;;;;;0.70;0.70;;;10.50;99.90;;;;;;5034776;28;20961;-80
2021/05/21 04:39:54;;;;;;;0.87;0.70;;;10.50;99.90;;;;;;5034499;28;20474;-80
2021/05/21 04:42:20;;;;;;;1.00;1.00;;;10.50;99.90;;;;;;5034824;28;20453;-79
2021/05/21 04:44:46;;;;;;;1.00;0.80;;;10.50;99.90;;;;;;5034940;28;20785;-80
2021/05/21 04:47:13;;;;;;;0.77;0.77;;;10.60;99.90;;;;;;5034801;28;20447;-80
2021/05/21 04:49:40;;;;;;;0.83;0.83;;;10.70;99.90;;;;;;5034510;28;20490;-80
2021/05/21 04:52:08;;;;;;;1.03;1.03;;;10.70;99.90;;;;;;5034742;28;20454;-80
2021/05/21 04:54:35;;;;;;;0.80;0.80;;;10.80;99.90;;;;;;5034543;28;20810;-80
2021/05/21 04:57:01;;;;;;;0.90;0.90;;;10.80;99.90;;;;;;5034625;28;20500;-80
2021/05/21 04:59:28;;;;;;;0.80;0.70;;;10.80;99.90;;;;;;5034440;28;20455;-80
2021/05/21 05:01:54;;;;;;;1.57;0.90;;;10.90;99.90;;;;;;5034531;28;20500;-78
2021/05/21 05:04:22;;;;;;;1.37;0.70;;;11.00;99.90;;;;;;5034477;28;20450;-78
2021/05/21 05:06:49;;;;;;;0.80;0.80;;;11.00;99.90;;;;;;5034506;28;20446;-78
2021/05/21 05:09:15;;;;;;;0.80;0.80;;;11.10;99.90;;;;;;5034242;28;20482;-78
2021/05/21 05:11:42;;;;;;;0.80;0.80;;;11.20;99.90;;;;;;5034053;28;20906;-78
2021/05/21 05:14:09;;;;;;;1.07;0.60;;;11.30;99.90;;;;;;5034349;28;20839;-78
2021/05/21 05:16:36;;;;;;;0.67;0.67;;;11.30;99.90;;;;;;5034403;28;20477;-79
2021/05/21 05:19:03;;;;;;;0.70;0.70;;;11.40;99.90;;;;;;5034010;28;20470;-78
2021/05/21 05:21:32;;;;;;;0.70;0.70;;;11.40;99.90;;;;;;5034209;28;20504;-78
2021/05/21 05:24:00;;;;;;;0.70;0.70;;;11.50;99.90;;;;;;5034143;28;20455;-78
2021/05/21 05:26:26;;;;;;;1.83;0.70;;;11.60;99.90;;;;;;5034093;28;20455;-78
2021/05/21 05:28:52;;;;;;;0.60;0.60;;;11.70;99.90;;;;;;5033568;28;21009;-78
2021/05/21 05:31:19;;;;;;;3.13;0.70;;;11.90;99.90;;;;;;5034005;28;20455;-78
2021/05/21 05:33:47;;;;;;;0.60;0.60;;;12.00;99.90;;;;;;5033975;28;20861;-78
2021/05/21 05:36:13;;;;;;;0.60;0.60;;;12.00;99.90;;;;;;5033907;28;20458;-78
2021/05/21 05:38:40;;;;;;;0.70;0.70;;;12.00;99.90;;;;;;5033786;28;20450;-78
2021/05/21 05:41:06;;;;;;;0.70;0.70;;;12.00;99.90;;;;;;5033828;28;20521;-78
2021/05/21 05:43:33;;;;;;;0.60;0.60;;;12.10;99.90;;;;;;5033301;28;20950;-78
2021/05/21 05:45:59;;;;;;;0.70;0.70;;;12.10;99.90;;;;;;5033438;28;20942;-78
2021/05/21 05:48:25;;;;;;;0.97;0.87;;;12.20;99.90;;;;;;5033375;28;20474;-78
2021/05/21 05:50:52;;;;;;;0.90;0.90;;;12.20;99.90;;;;;;5033287;28;20474;-78
2021/05/21 05:53:19;;;;;;;1.10;0.70;;;12.30;99.90;;;;;;5033181;28;20575;-78
2021/05/21 05:55:47;;;;;;;0.70;0.70;;;12.30;99.90;;;;;;5033598;28;20553;-78
2021/05/21 05:58:13;;;;;;;0.70;0.70;;;12.50;99.90;;;;;;5033585;28;20447;-78
2021/05/21 06:00:40;;;;;;;0.70;0.70;;;12.60;99.90;;;;;;5033477;28;20481;-78
2021/05/21 06:03:07;;;;;;;0.70;0.60;;;12.70;99.90;;;;;;5033535;28;20443;-78
2021/05/21 06:05:34;;;;;;;1.53;1.00;;;12.70;99.90;;;;;;5033456;28;20447;-78
2021/05/21 06:08:02;;;;;;;0.67;0.67;;;12.80;99.90;;;;;;5034557;28;20528;-78
2021/05/21 06:10:29;;;;;;;0.80;0.67;;;12.80;99.90;;;;;;5033454;28;20478;-78
2021/05/21 06:13:01;;;;;;;1.13;0.63;;;12.90;99.90;;;;;;5033058;28;20451;-79
2021/05/21 06:15:27;;;;;;;3.63;0.80;;;13.00;99.90;;;;;;5033596;28;20443;-78
2021/05/21 06:17:54;;;;;;;0.70;0.70;;;13.10;99.90;;;;;;5032997;28;20931;-78
2021/05/21 06:20:21;;;;;;;1.00;0.70;;;13.10;99.90;;;;;;5033232;28;20463;-79
2021/05/21 06:22:47;;;;;;;0.73;0.60;;;13.20;99.90;;;;;;5033250;28;20439;-78
2021/05/21 06:25:16;;;;;;;0.57;0.57;;;13.30;99.90;;;;;;5033240;28;20457;-77
2021/05/21 06:27:43;;;;;;;0.60;0.60;;;13.40;99.90;;;;;;5033219;28;20563;-77
2021/05/21 06:30:12;;;;;;;1.20;0.70;;;13.50;99.90;;;;;;5033371;28;20532;-77
2021/05/21 06:32:39;;;;;;;0.57;0.57;;;13.50;99.90;;;;;;5033200;28;20447;-77
2021/05/21 06:35:07;;;;;;;0.70;0.70;;;13.40;99.90;;;;;;5033238;28;20794;-78
2021/05/21 06:37:33;;;;;;;0.83;0.73;;;13.30;99.90;;;;;;5033244;28;20439;-77
2021/05/21 06:40:00;;;;;;;0.73;0.73;;;13.10;99.90;;;;;;5033020;28;20839;-78
2021/05/21 06:42:26;;;;;;;0.80;0.80;;;13.20;99.90;;;;;;5032629;28;20438;-78
2021/05/21 06:44:52;;;;;;;1.10;0.70;;;13.10;99.90;;;;;;5033103;28;20431;-78
2021/05/21 06:47:19;;;;;;;0.67;0.60;;;13.10;99.90;;;;;;5033037;28;20469;-78
2021/05/21 06:49:47;;;;;;;0.70;0.60;;;13.10;99.90;;;;;;5032927;28;20581;-77
2021/05/21 06:52:14;;;;;;;1.03;0.70;;;13.00;99.90;;;;;;5033837;28;20839;-78
2021/05/21 06:54:40;;;;;;;1.73;0.90;;;13.00;99.90;;;;;;5032991;28;20446;-78
2021/05/21 06:57:07;;;;;;;0.70;0.70;;;13.00;99.90;;;;;;5032762;28;20938;-78
2021/05/21 06:59:33;;;;;;;0.70;0.70;;;13.00;99.90;;;;;;5032632;28;21051;-78
2021/05/21 07:02:00;;;;;;;1.30;0.80;;;13.10;99.90;;;;;;5033035;28;20435;-78
2021/05/21 07:04:27;;;;;;;0.80;0.60;;;13.10;99.90;;;;;;5036335;28;20477;-78
2021/05/21 07:06:53;;;;;;;1.23;0.70;;;13.10;99.90;;;;;;5037153;28;20465;-78
2021/05/21 07:09:19;;;;;;;0.60;0.60;;;13.10;99.90;;;;;;5036553;28;20490;-78
2021/05/21 07:11:45;;;;;;;0.70;0.70;;;13.20;99.90;;;;;;5036355;28;20431;-78
2021/05/21 07:14:13;;;;;;;0.70;0.70;;;13.20;99.90;;;;;;5036603;28;20431;-78
2021/05/21 07:16:40;;;;;;;0.83;0.70;;;13.20;99.90;;;;;;5036511;28;20853;-78
2021/05/21 07:19:07;;;;;;;1.73;0.83;;;13.30;99.90;;;;;;5036406;28;20466;-78
2021/05/21 07:21:34;;;;;;;0.70;0.70;;;13.30;99.90;;;;;;5036519;28;20435;-78
2021/05/21 07:24:00;;;;;;;0.80;0.60;;;13.30;99.90;;;;;;5036117;28;20435;-77
2021/05/21 07:26:28;;;;;;;0.63;0.60;;;13.30;99.90;;;;;;5036926;28;20435;-77
2021/05/21 07:28:55;;;;;;;0.77;0.77;;;13.40;99.90;;;;;;5036457;28;20517;-78
2021/05/21 07:31:25;;;;;;;1.50;0.70;;;13.40;99.90;;;;;;5036283;28;20435;-78
2021/05/21 07:33:51;;;;;;;1.27;0.93;;;13.40;99.90;;;;;;5036104;28;20940;-78
2021/05/21 07:36:17;;;;;;;1.17;0.60;;;13.40;99.90;;;;;;5036212;28;20450;-78
2021/05/21 07:38:44;;;;;;;6.90;0.77;;;13.30;99.90;;;;;;5036030;28;20455;-77
2021/05/21 07:41:11;;;;;;;1.03;0.70;;;13.40;99.90;;;;;;5036093;28;20459;-78
2021/05/21 07:43:38;;;;;;;1.00;0.63;;;13.40;99.90;;;;;;5035682;28;20479;-76
2021/05/21 07:46:04;;;;;;;2.13;0.70;;;13.40;99.90;;;;;;5036037;28;20446;-78
2021/05/21 07:48:30;;;;;;;1.47;0.60;;;13.40;99.90;;;;;;5035887;28;20478;-78
2021/05/21 07:50:57;;;;;;;0.83;0.70;;;13.50;99.90;;;;;;5035639;28;20875;-78
2021/05/21 07:53:23;;;;;;;1.23;0.90;;;13.50;99.90;;;;;;5036144;28;20453;-78
2021/05/21 07:55:50;;;;;;;1.10;0.70;;;13.50;99.90;;;;;;5035525;28;20461;-78
2021/05/21 07:58:17;;;;;;;0.70;0.70;;;13.60;99.90;;;;;;5035708;28;20461;-78
2021/05/21 08:00:45;;;;;;;0.60;0.60;;;13.70;99.90;;;;;;5035676;28;20463;-78
2021/05/21 08:03:11;;;;;;;0.63;0.63;;;13.80;99.90;;;;;;5035651;28;20497;-78
2021/05/21 08:05:37;;;;;;;0.87;0.60;;;13.70;99.90;;;;;;5035412;28;20930;-79
2021/05/21 08:08:04;;;;;;;0.60;0.60;;;13.80;99.90;;;;;;5035533;28;20482;-78
2021/05/21 08:10:30;;;;;;;2.30;0.70;;;13.80;99.90;;;;;;5035456;28;20470;-78
2021/05/21 08:12:57;;;;;;;0.90;0.70;;;13.90;99.90;;;;;;5035484;28;20463;-78
2021/05/21 08:15:23;;;;;;;2.10;0.70;;;13.90;99.90;;;;;;5034685;28;20450;-78
2021/05/21 08:17:49;;;;;;;0.63;0.63;;;13.90;99.90;;;;;;5035352;28;20439;-78
2021/05/21 08:20:16;;;;;;;1.90;0.63;;;14.00;99.90;;;;;;5035005;28;21004;-77
2021/05/21 08:22:42;;;;;;;0.80;0.80;;;14.10;99.90;;;;;;5035181;28;20459;-77
2021/05/21 08:25:09;;;;;;;0.70;0.70;;;14.00;99.90;;;;;;5035360;28;20454;-77
2021/05/21 08:27:36;;;;;;;0.80;0.77;;;14.00;99.90;;;;;;5034899;28;20950;-78
2021/05/21 08:30:04;;;;;;;0.70;0.63;;;14.10;99.90;;;;;;5035149;28;20550;-77
2021/05/21 08:32:31;;;;;;;1.10;0.53;;;14.10;99.90;;;;;;5035152;28;20463;-77
2021/05/21 08:34:57;;;;;;;2.00;0.70;;;14.10;99.90;;;;;;5035511;28;20451;-78
2021/05/21 08:37:23;;;;;;;2.93;2.10;;;14.20;99.90;;;;;;5035089;28;20443;-78
2021/05/21 08:39:49;;;;;;;1.83;1.00;;;14.20;99.90;;;;;;5035110;28;20986;-78
2021/05/21 08:42:16;;;;;;;1.43;0.50;;;14.20;99.90;;;;;;5034706;28;20914;-79
2021/05/21 08:44:46;;;;;;;2.30;0.60;;;14.20;99.90;;;;;;5034527;28;20482;-78
2021/05/21 08:47:13;;;;;;;0.70;0.70;;;14.20;99.90;;;;;;5035345;28;20541;-77
2021/05/21 08:49:39;;;;;;;2.30;0.70;;;14.30;99.90;;;;;;5034476;28;21038;-78
2021/05/21 08:52:05;;;;;;;2.00;0.60;;;14.30;99.90;;;;;;5034513;28;20784;-78
2021/05/21 08:54:34;;;;;;;0.63;0.63;;;14.20;99.80;;;;;;5034454;28;20798;-78
2021/05/21 08:57:04;;;;;;;1.70;0.60;;;14.20;99.40;;;;;;5034751;28;20438;-78
2021/05/21 08:59:30;;;;;;;0.50;0.50;;;14.20;99.70;;;;;;5034564;28;20490;-78
2021/05/21 09:01:57;;;;;;;1.13;0.60;;;14.20;99.50;;;;;;5034656;28;20435;-78
2021/05/21 09:04:25;;;;;;;1.67;0.57;;;14.20;99.50;;;;;;5034782;28;20439;-78
2021/05/21 09:06:51;;;;;;;0.70;0.60;;;14.30;99.50;;;;;;5034593;28;20422;-78
2021/05/21 09:09:19;;;;;;;0.80;0.50;;;14.20;99.90;;;;;;5034305;28;20549;-79
2021/05/21 09:11:46;;;;;;;4.10;0.57;;;14.30;99.90;;;;;;5034382;28;20493;-78
2021/05/21 09:14:15;;;;;;;0.90;0.70;;;14.30;99.90;;;;;;5034369;28;20446;-77
2021/05/21 09:16:43;;;;;;;0.53;0.53;;;14.40;99.90;;;;;;5034302;28;20476;-78
2021/05/21 09:19:14;;;;;;;0.50;0.50;;;14.40;99.70;;;;;;5034154;28;20466;-77
2021/05/21 09:21:50;;;;;;;1.13;0.60;;;14.30;99.60;;;;;;5034837;28;20455;-77
2021/05/21 09:24:17;;;;;;;1.00;0.50;;;14.20;99.80;;;;;;5034155;28;20454;-78
2021/05/21 09:26:45;;;;;;;0.50;0.50;;;14.20;99.40;;;;;;5033782;28;20954;-78
2021/05/21 09:29:14;;;;;;;0.60;0.50;;;14.20;99.20;;;;;;5033907;28;20498;-77
2021/05/21 09:31:44;;;;;;;1.43;0.60;;;14.30;99.90;;;;;;5034172;28;20450;-78
2021/05/21 09:34:11;;;;;;;0.60;0.60;;;14.30;99.70;;;;;;5033951;28;20532;-78
2021/05/21 09:36:38;;;;;;;0.60;0.60;;;14.40;99.90;;;;;;5033978;28;20500;-80
2021/05/21 09:39:08;;;;;;;1.80;0.60;;;14.40;99.80;;;;;;5033804;28;20466;-78
2021/05/21 09:41:46;;;;;;;0.60;0.60;;;14.40;99.90;;;;;;5034053;28;20451;-78
2021/05/21 09:44:13;;;;;;;2.70;0.80;;;14.40;99.90;;;;;;5032789;28;20486;-79
2021/05/21 09:46:43;;;;;;;0.87;0.60;;;14.40;99.90;;;;;;5033166;28;20500;-79
2021/05/21 09:49:24;;;;;;;7.90;0.60;;;14.40;99.90;;;;;;5033248;28;20505;-78
2021/05/21 09:51:51;;;;;;;1.60;0.50;;;14.30;99.90;;;;;;5033568;28;20435;-78
2021/05/21 09:54:18;;;;;;;2.50;1.10;;;14.30;99.90;;;;;;5033208;28;20434;-79
2021/05/21 09:56:59;;;;;;;0.60;0.60;;;14.20;99.90;;;;;;5033589;28;20423;-79
2021/05/21 09:59:41;;;;;;;0.43;0.43;;;14.20;99.90;;;;;;5033325;28;20489;-79
2021/05/21 10:02:25;;;;;;;0.60;0.60;;;14.10;99.90;;;;;;5031282;28;20523;-78
2021/05/21 10:04:52;;;;;;;1.80;0.60;;;14.00;99.90;;;;;;5033201;28;20820;-79
2021/05/21 10:07:19;;;;;;;1.13;0.50;;;14.00;99.90;;;;;;5032909;28;20865;-79
2021/05/21 10:09:47;;;;;;;1.17;0.50;;;14.00;99.90;;;;;;5033081;28;20544;-79
2021/05/21 10:12:13;;;;;;;0.50;0.50;;;14.00;99.90;;;;;;5033066;28;20485;-78
2021/05/21 10:14:41;;;;;;;0.43;0.40;;;13.90;99.90;;;;;;5033127;28;20481;-79
2021/05/21 10:17:09;;;;;;;1.20;0.47;;;13.90;99.90;;;;;;5033697;28;20510;-79
2021/05/21 10:19:39;;;;;;;0.77;0.50;;;13.80;99.90;;;;;;5033110;28;20880;-80
2021/05/21 10:22:08;;;;;;;1.30;0.70;;;13.80;99.90;;;;;;5032774;28;20960;-80
2021/05/21 10:24:37;;;;;;;0.60;0.60;;;13.80;99.90;;;;;;5032990;28;20925;-80
2021/05/21 10:27:11;;;;;;;2.20;0.40;;;13.90;99.90;;;;;;5032698;28;20926;-80
2021/05/21 10:29:40;;;;;;;0.60;0.60;;;13.90;99.90;;;;;;5032897;28;20497;-80
2021/05/21 10:32:15;;;;;;;2.30;0.80;;;13.90;99.90;;;;;;5032878;28;20485;-79
2021/05/21 10:34:43;;;;;;;0.93;0.70;;;14.00;99.90;;;;;;5033027;28;20438;-79
2021/05/21 10:37:20;;;;;;;0.93;0.43;;;14.00;99.90;;;;;;5032967;28;20445;-78
2021/05/21 10:40:05;;;;;;;0.40;0.40;;;14.00;99.90;;;;;;5036851;28;20828;-79
2021/05/21 10:42:39;;;;;;;0.70;0.50;;;14.00;99.90;;;;;;5036504;28;20846;-79
2021/05/21 10:45:12;;;;;;;0.70;0.50;;;14.10;99.90;;;;;;5036387;28;20830;-77
2021/05/21 10:47:39;;;;;;;0.70;0.60;;;14.20;99.90;;;;;;5036621;28;20426;-78
2021/05/21 10:50:16;;;;;;;1.70;1.23;;;14.20;99.90;;;;;;5036689;28;20470;-79
2021/05/21 10:52:54;;;;;;;0.87;0.60;;;14.20;99.90;;;;;;5036626;28;20503;-79
2021/05/21 10:55:37;;;;;;;0.60;0.60;;;14.20;99.90;;;;;;5036572;28;20430;-79
2021/05/21 10:58:04;;;;;;;0.60;0.50;;;14.20;99.90;;;;;;5036712;28;20449;-78
2021/05/21 11:00:31;;;;;;;0.50;0.50;;;14.20;99.90;;;;;;5036316;28;20508;-79
2021/05/21 11:02:57;;;;;;;1.37;0.60;;;14.40;99.90;;;;;;5036215;28;20851;-79
2021/05/21 11:05:28;;;;;;;0.90;0.60;;;14.40;99.90;;;;;;5036615;28;20422;-78
2021/05/21 11:07:56;;;;;;;0.60;0.60;;;14.50;99.90;;;;;;5036351;28;20805;-78
2021/05/21 11:10:41;;;;;;;0.60;0.60;;;14.50;99.90;;;;;;5036485;28;20470;-79
2021/05/21 11:13:11;;;;;;;1.00;0.70;;;14.60;99.90;;;;;;5036630;28;20449;-79
2021/05/21 11:15:39;;;;;;;0.60;0.60;;;14.60;99.90;;;;;;5036576;28;20472;-79
2021/05/21 11:18:27;;;;;;;1.63;0.70;;;14.60;99.90;;;;;;5036330;28;20830;-78
2021/05/21 11:20:56;;;;;;;0.93;0.50;;;14.70;99.90;;;;;;5036084;28;20462;-80
2021/05/21 11:23:28;;;;;;;0.50;0.50;;;14.70;99.90;;;;;;5036238;28;20502;-79
2021/05/21 11:26:05;;;;;;;0.80;0.50;;;14.80;99.90;;;;;;5036356;28;20434;-78
2021/05/21 11:28:38;;;;;;;0.50;0.50;;;14.90;99.90;;;;;;5036263;28;20466;-79
2021/05/21 11:31:08;;;;;;;0.50;0.50;;;14.90;99.90;;;;;;5035954;28;20915;-80
2021/05/21 11:33:34;;;;;;;0.90;0.60;;;15.00;99.90;;;;;;5036273;28;20476;-80
2021/05/21 11:36:01;;;;;;;0.57;0.53;;;15.10;99.90;;;;;;5035765;28;20911;-80
2021/05/21 11:38:27;;;;;;;0.60;0.60;;;15.20;99.90;;;;;;5036169;28;20442;-80
2021/05/21 11:40:54;;;;;;;0.80;0.43;;;15.40;99.90;;;;;;5034964;28;21009;-79
2021/05/21 11:43:23;;;;;;;1.53;0.60;;;15.50;99.90;;;;;;5035773;28;20482;-81
2021/05/21 11:45:51;;;;;;;0.50;0.50;;;15.50;99.90;;;;;;5036090;28;20498;-81
2021/05/21 11:48:31;;;;;;;0.50;0.50;;;15.60;99.90;;;;;;5036060;28;20471;-79
2021/05/21 11:50:57;;;;;;;1.10;0.50;;;15.60;99.70;;;;;;5034982;28;20947;-80
2021/05/21 11:53:23;;;;;;;0.93;0.50;;;15.60;99.80;;;;;;5035977;28;20438;-80
2021/05/21 11:55:50;;;;;;;0.50;0.50;;;15.50;99.60;;;;;;5035953;28;20438;-80
2021/05/21 11:58:21;;;;;;;2.50;0.53;;;15.50;99.90;;;;;;5035571;28;20438;-80
2021/05/21 12:00:51;;;;;;;0.50;0.50;;;15.40;99.40;;;;;;5035817;28;20467;-79
2021/05/21 12:03:17;;;;;;;0.70;0.50;;;15.40;99.60;;;;;;5035487;28;20904;-80
2021/05/21 12:05:44;;;;;;;0.50;0.50;;;15.30;99.20;;;;;;5035748;28;20439;-79
2021/05/21 12:08:10;;;;;;;0.43;0.40;;;15.20;98.40;;;;;;5035568;28;20471;-79
2021/05/21 12:10:37;;;;;;;0.70;0.50;;;15.20;99.50;;;;;;5035578;28;20845;-80
2021/05/21 12:13:07;;;;;;;0.47;0.47;;;15.40;99.50;;;;;;5035342;28;20932;-80
2021/05/21 12:15:33;;;;;;;0.50;0.50;;;15.30;99.90;;;;;;5035571;28;20441;-80
2021/05/21 12:18:03;;;;;;;1.27;0.53;;;15.40;99.80;;;;;;5035545;28;20442;-81
2021/05/21 12:20:30;;;;;;;0.77;0.60;;;15.30;98.30;;;;;;5035349;28;20474;-81
2021/05/21 12:23:05;;;;;;;0.60;0.60;;;15.30;97.50;;;;;;5035456;28;20801;-85
2021/05/21 12:25:32;;;;;;;0.50;0.50;;;15.30;97.70;;;;;;5035372;28;20438;-82
2021/05/21 12:28:00;;;;;;;0.60;0.60;;;15.30;97.00;;;;;;5035301;28;20442;-82
2021/05/21 12:30:27;;;;;;;0.60;0.60;;;15.30;96.70;;;;;;5035365;28;20493;-82
2021/05/21 12:32:53;;;;;;;0.40;0.40;;;15.30;96.10;;;;;;5035366;28;20457;-83
2021/05/21 12:35:35;;;;;;;0.60;0.60;;;15.30;96.60;;;;;;5035219;28;20493;-83
2021/05/21 12:38:03;;;;;;;0.60;0.50;;;15.20;96.20;;;;;;5035155;28;20439;-82
2021/05/21 12:40:29;;;;;;;1.50;0.50;;;15.20;97.40;;;;;;5035076;28;20569;-80
2021/05/21 12:42:55;;;;;;;1.67;0.50;;;15.20;97.30;;;;;;5034523;28;20478;-81
2021/05/21 12:45:22;;;;;;;1.67;0.80;;;15.30;97.80;;;;;;5035511;28;20520;-82
2021/05/21 12:47:49;;;;;;;1.23;0.60;;;15.30;97.40;;;;;;5034951;28;20446;-81
2021/05/21 12:50:17;;;;;;;1.60;0.60;;;15.30;97.00;;;;;;5034850;28;20467;-82